| time (UTC) | temp C | wind direction | speed KPH | gust KPH | rain 1hr cm | rain 24hr cm | rain mn cm | humidity % | barometer mb |
| 20260507122928 | 21 | 111 | 6.4 | 14.5 | 0.00 | 0.00 | 0.00 | 58 | 1014.0 |
| 20260507122429 | 21 | 82 | 9.7 | 16.1 | 0.00 | 0.00 | 0.00 | 58 | 1014.0 |
| 20260507121928 | 21 | 78 | 6.4 | 12.9 | 0.00 | 0.00 | 0.00 | 58 | 1014.0 |
| 20260507121428 | 21 | 104 | 8.0 | 12.9 | 0.00 | 0.00 | 0.00 | 59 | 1014.0 |
| 20260507120931 | 21 | 100 | 6.4 | 17.7 | 0.00 | 0.00 | 0.00 | 60 | 1014.0 |
| 20260507120431 | 21 | 115 | 6.4 | 14.5 | 0.00 | 0.00 | 0.00 | 59 | 1014.0 |
| 20260507115928 | 21 | 116 | 11.3 | 16.1 | 0.00 | 0.00 | 0.00 | 59 | 1014.0 |
| 20260507115428 | 21 | 94 | 9.7 | 12.9 | 0.00 | 0.00 | 0.00 | 57 | 1014.0 |
| 20260507114929 | 21 | 97 | 4.8 | 16.1 | 0.00 | 0.00 | 0.00 | 58 | 1014.0 |
| 20260507114428 | 21 | 121 | 11.3 | 19.3 | 0.00 | 0.00 | 0.00 | 58 | 1014.0 |
| 20260507113928 | 21 | 114 | 11.3 | 16.1 | 0.00 | 0.00 | 0.00 | 59 | 1014.0 |
| 20260507113431 | 21 | 89 | 6.4 | 16.1 | 0.00 | 0.00 | 0.00 | 59 | 1014.0 |
| 20260507112928 | 21 | 89 | 9.7 | 16.1 | 0.00 | 0.00 | 0.00 | 60 | 1014.0 |
| 20260507112429 | 21 | 76 | 12.9 | 16.1 | 0.00 | 0.00 | 0.00 | 60 | 1014.0 |
| 20260507111928 | 21 | 116 | 11.3 | 16.1 | 0.00 | 0.00 | 0.00 | 59 | 1014.0 |
| 20260507111429 | 21 | 96 | 4.8 | 12.9 | 0.00 | 0.00 | 0.00 | 61 | 1014.0 |
| 20260507110932 | 21 | 65 | 4.8 | 12.9 | 0.00 | 0.00 | 0.00 | 63 | 1014.0 |
| 20260507110431 | 21 | 110 | 0.0 | 12.9 | 0.00 | 0.00 | 0.00 | 63 | 1014.0 |
| 20260507105929 | 21 | 72 | 0.0 | 11.3 | 0.00 | 0.00 | 0.00 | 63 | 1014.0 |
| 20260507105431 | 21 | 58 | 9.7 | 12.9 | 0.00 | 0.00 | 0.00 | 63 | 1014.0 |
| 20260507104929 | 21 | 50 | 9.7 | 14.5 | 0.00 | 0.00 | 0.00 | 63 | 1014.0 |
| 20260507104428 | 21 | 96 | 9.7 | 12.9 | 0.00 | 0.00 | 0.00 | 63 | 1014.0 |
| 20260507103929 | 21 | 101 | 11.3 | 16.1 | 0.00 | 0.00 | 0.00 | 62 | 1014.0 |
| 20260507103432 | 21 | 88 | 4.8 | 12.9 | 0.00 | 0.00 | 0.00 | 62 | 1014.0 |
| 20260507102928 | 21 | 87 | 9.7 | 12.9 | 0.00 | 0.00 | 0.00 | 63 | 1014.0 |
| 20260507102431 | 21 | 47 | 12.9 | 12.9 | 0.00 | 0.00 | 0.00 | 63 | 1014.0 |
| 20260507101928 | 21 | 108 | 9.7 | 12.9 | 0.00 | 0.00 | 0.00 | 62 | 1014.0 |
| 20260507101428 | 21 | 32 | 6.4 | 12.9 | 0.00 | 0.00 | 0.00 | 62 | 1014.0 |
| 20260507100928 | 21 | 50 | 8.0 | 16.1 | 0.00 | 0.00 | 0.00 | 61 | 1014.0 |
| 20260507100429 | 21 | 89 | 6.4 | 17.7 | 0.00 | 0.00 | 0.00 | 62 | 1014.0 |
| 20260507095931 | 21 | 111 | 3.2 | 9.7 | 0.00 | 0.00 | 0.00 | 63 | 1014.0 |
| 20260507095428 | 21 | 108 | 8.0 | 16.1 | 0.00 | 0.00 | 0.00 | 63 | 1014.0 |
| 20260507094928 | 21 | 76 | 11.3 | 16.1 | 0.00 | 0.00 | 0.00 | 62 | 1014.0 |
| 20260507094428 | 21 | 70 | 8.0 | 12.9 | 0.00 | 0.00 | 0.00 | 65 | 1014.0 |
| 20260507093932 | 21 | 120 | 3.2 | 12.9 | 0.00 | 0.00 | 0.00 | 65 | 1014.0 |
| 20260507093428 | 21 | 127 | 9.7 | 14.5 | 0.00 | 0.00 | 0.00 | 65 | 1014.0 |
| 20260507092928 | 21 | 114 | 3.2 | 12.9 | 0.00 | 0.00 | 0.00 | 67 | 1014.0 |
| 20260507092428 | 20 | 76 | 0.0 | 4.8 | 0.00 | 0.00 | 0.00 | 68 | 1014.0 |
| 20260507091931 | 20 | 64 | 0.0 | 11.3 | 0.00 | 0.00 | 0.00 | 68 | 1014.0 |
| 20260507091431 | 20 | 27 | 3.2 | 11.3 | 0.00 | 0.00 | 0.00 | 68 | 1014.0 |
| 20260507090928 | 20 | 61 | 4.8 | 12.9 | 0.00 | 0.00 | 0.00 | 68 | 1014.0 |
| 20260507090428 | 20 | 120 | 0.0 | 8.0 | 0.00 | 0.00 | 0.00 | 68 | 1014.0 |
| 20260507085928 | 20 | 95 | 0.0 | 9.7 | 0.00 | 0.00 | 0.00 | 67 | 1014.0 |
| 20260507085428 | 21 | 90 | 0.0 | 12.9 | 0.00 | 0.00 | 0.00 | 67 | 1014.0 |
| 20260507084931 | 21 | 70 | 11.3 | 12.9 | 0.00 | 0.00 | 0.00 | 68 | 1014.0 |
| 20260507084428 | 21 | 48 | 3.2 | 9.7 | 0.00 | 0.00 | 0.00 | 70 | 1014.0 |
| 20260507083928 | 20 | 62 | 0.0 | 8.0 | 0.00 | 0.00 | 0.00 | 70 | 1014.0 |
| 20260507083431 | 20 | 89 | 6.4 | 8.0 | 0.00 | 0.00 | 0.00 | 69 | 1014.0 |
| 20260507082928 | 20 | 128 | 0.0 | 0.0 | 0.00 | 0.00 | 0.00 | 70 | 1014.0 |
| 20260507082429 | 20 | 112 | 4.8 | 9.7 | 0.00 | 0.00 | 0.00 | 69 | 1014.0 |
| 20260507081928 | 20 | 115 | 0.0 | 8.0 | 0.00 | 0.00 | 0.00 | 68 | 1014.0 |
| 20260507081431 | 20 | 131 | 0.0 | 8.0 | 0.00 | 0.00 | 0.00 | 70 | 1014.0 |
| 20260507080931 | 20 | 71 | 3.2 | 12.9 | 0.00 | 0.00 | 0.00 | 72 | 1014.0 |
| 20260507080429 | 19 | 111 | 0.0 | 0.0 | 0.00 | 0.00 | 0.00 | 72 | 1014.0 |
| 20260507075928 | 19 | 75 | 0.0 | 0.0 | 0.00 | 0.00 | 0.00 | 73 | 1014.0 |
| 20260507075428 | 19 | 75 | 0.0 | 0.0 | 0.00 | 0.00 | 0.00 | 75 | 1014.0 |
| 20260507074928 | 19 | 100 | 0.0 | 4.8 | 0.00 | 0.00 | 0.00 | 75 | 1014.0 |
| 20260507074428 | 18 | 172 | 0.0 | 0.0 | 0.00 | 0.00 | 0.00 | 74 | 1014.0 |
| 20260507073931 | 18 | 187 | 0.0 | 0.0 | 0.00 | 0.00 | 0.00 | 73 | 1014.0 |
| 20260507073429 | 18 | 187 | 0.0 | 0.0 | 0.00 | 0.00 | 0.00 | 73 | 1014.0 |
| 20260507072928 | 18 | 110 | 0.0 | 0.0 | 0.00 | 0.00 | 0.00 | 74 | 1014.0 |
| 20260507072428 | 18 | 109 | 0.0 | 0.0 | 0.00 | 0.00 | 0.00 | 77 | 1014.0 |
| 20260507071928 | 18 | 97 | 0.0 | 0.0 | 0.00 | 0.00 | 0.00 | 77 | 1014.0 |
| 20260507071428 | 18 | 218 | 0.0 | 0.0 | 0.00 | 0.00 | 0.00 | 77 | 1014.0 |
| 20260507070928 | 18 | 218 | 0.0 | 0.0 | 0.00 | 0.00 | 0.00 | 77 | 1014.0 |
| 20260507070428 | 18 | 218 | 0.0 | 0.0 | 0.00 | 0.00 | 0.00 | 76 | 1014.0 |
| 20260507065928 | 17 | 218 | 0.0 | 0.0 | 0.00 | 0.00 | 0.00 | 77 | 1014.0 |
| 20260507065431 | 17 | 218 | 0.0 | 0.0 | 0.00 | 0.00 | 0.00 | 78 | 1014.0 |
| 20260507064928 | 17 | 218 | 0.0 | 0.0 | 0.00 | 0.00 | 0.00 | 80 | 1014.0 |
| 20260507064428 | 17 | 218 | 0.0 | 0.0 | 0.00 | 0.00 | 0.00 | 80 | 1014.0 |
| 20260507063928 | 17 | 218 | 0.0 | 0.0 | 0.00 | 0.00 | 0.00 | 81 | 1014.0 |
| 20260507063428 | 17 | 216 | 0.0 | 0.0 | 0.00 | 0.00 | 0.00 | 82 | 1014.0 |
| 20260507062928 | 17 | 269 | 0.0 | 0.0 | 0.00 | 0.00 | 0.00 | 83 | 1014.0 |
| 20260507062428 | 16 | 271 | 0.0 | 0.0 | 0.00 | 0.00 | 0.00 | 83 | 1014.0 |
| 20260507061928 | 16 | 269 | 0.0 | 0.0 | 0.00 | 0.00 | 0.00 | 84 | 1014.0 |
| 20260507061428 | 16 | 267 | 3.2 | 4.8 | 0.00 | 0.00 | 0.00 | 84 | 1014.0 |
| 20260507060928 | 16 | 256 | 0.0 | 4.8 | 0.00 | 0.00 | 0.00 | 85 | 1014.0 |
| 20260507060431 | 16 | 265 | 6.4 | 8.0 | 0.00 | 0.00 | 0.00 | 86 | 1014.0 |
| 20260507055928 | 16 | 231 | 0.0 | 0.0 | 0.00 | 0.00 | 0.00 | 87 | 1014.0 |
| 20260507055429 | 16 | 254 | 0.0 | 3.2 | 0.00 | 0.00 | 0.00 | 87 | 1014.0 |
| 20260507054928 | 16 | 261 | 3.2 | 6.4 | 0.00 | 0.00 | 0.00 | 88 | 1014.0 |
| 20260507054428 | 15 | 270 | 0.0 | 3.2 | 0.00 | 0.00 | 0.00 | 88 | 1014.0 |
| 20260507053931 | 15 | 306 | 0.0 | 4.8 | 0.00 | 0.00 | 0.00 | 88 | 1014.0 |
| 20260507053428 | 15 | 310 | 0.0 | 4.8 | 0.00 | 0.00 | 0.00 | 88 | 1014.0 |
| 20260507052928 | 15 | 310 | 0.0 | 4.8 | 0.00 | 0.00 | 0.00 | 88 | 1014.0 |
| 20260507052428 | 15 | 310 | 0.0 | 0.0 | 0.00 | 0.00 | 0.00 | 88 | 1014.0 |
| 20260507051928 | 15 | 310 | 0.0 | 0.0 | 0.00 | 0.00 | 0.00 | 88 | 1014.0 |
| 20260507051431 | 15 | 310 | 0.0 | 4.8 | 0.00 | 0.00 | 0.00 | 88 | 1013.0 |
| 20260507050928 | 15 | 310 | 0.0 | 6.4 | 0.00 | 0.00 | 0.00 | 88 | 1013.0 |
| 20260507050428 | 15 | 308 | 0.0 | 4.8 | 0.00 | 0.00 | 0.00 | 88 | 1013.0 |
| 20260507045931 | 15 | 306 | 0.0 | 3.2 | 0.00 | 0.00 | 0.00 | 88 | 1013.0 |
| 20260507045428 | 15 | 305 | 0.0 | 0.0 | 0.00 | 0.00 | 0.00 | 88 | 1013.0 |
| 20260507044928 | 15 | 305 | 0.0 | 0.0 | 0.00 | 0.00 | 0.00 | 88 | 1013.0 |
| 20260507044431 | 15 | 305 | 0.0 | 0.0 | 0.00 | 0.00 | 0.00 | 88 | 1013.0 |
| 20260507043931 | 15 | 305 | 0.0 | 0.0 | 0.00 | 0.00 | 0.00 | 88 | 1013.0 |
| 20260507043428 | 15 | 310 | 0.0 | 6.4 | 0.00 | 0.00 | 0.00 | 88 | 1013.0 |
| 20260507042929 | 15 | 310 | 0.0 | 4.8 | 0.00 | 0.00 | 0.00 | 88 | 1013.0 |
| 20260507042428 | 15 | 310 | 0.0 | 0.0 | 0.00 | 0.00 | 0.00 | 88 | 1013.0 |
| 20260507041929 | 15 | 310 | 0.0 | 0.0 | 0.00 | 0.00 | 0.00 | 88 | 1013.0 |
| 20260507041428 | 15 | 310 | 0.0 | 3.2 | 0.00 | 0.00 | 0.00 | 88 | 1013.0 |
| 20260507040932 | 15 | 310 | 0.0 | 6.4 | 0.00 | 0.00 | 0.00 | 88 | 1013.0 |
| 20260507040428 | 15 | 307 | 0.0 | 3.2 | 0.00 | 0.00 | 0.00 | 88 | 1013.0 |
| 20260507035928 | 15 | 309 | 0.0 | 3.2 | 0.00 | 0.00 | 0.00 | 88 | 1013.0 |
| 20260507035429 | 15 | 309 | 0.0 | 4.8 | 0.00 | 0.00 | 0.00 | 88 | 1013.0 |
| 20260507034928 | 15 | 309 | 3.2 | 4.8 | 0.00 | 0.00 | 0.00 | 88 | 1013.0 |
| 20260507034428 | 14 | 308 | 0.0 | 3.2 | 0.00 | 0.00 | 0.00 | 88 | 1013.0 |
| 20260507033927 | 14 | 309 | 0.0 | 0.0 | 0.00 | 0.00 | 0.00 | 88 | 1013.0 |
| 20260507033428 | 14 | 309 | 0.0 | 0.0 | 0.00 | 0.00 | 0.00 | 88 | 1013.0 |
| 20260507032928 | 14 | 309 | 0.0 | 0.0 | 0.00 | 0.00 | 0.00 | 88 | 1013.0 |
| 20260507032428 | 14 | 308 | 0.0 | 0.0 | 0.00 | 0.00 | 0.00 | 88 | 1013.0 |
| 20260507031928 | 15 | 308 | 0.0 | 0.0 | 0.00 | 0.00 | 0.00 | 88 | 1013.0 |
| 20260507031431 | 15 | 308 | 0.0 | 3.2 | 0.00 | 0.00 | 0.00 | 88 | 1011.9 |
| 20260507030928 | 15 | 308 | 0.0 | 0.0 | 0.00 | 0.00 | 0.00 | 88 | 1011.9 |
| 20260507030431 | 14 | 308 | 0.0 | 0.0 | 0.00 | 0.00 | 0.00 | 88 | 1011.9 |
| 20260507025927 | 14 | 310 | 0.0 | 6.4 | 0.00 | 0.00 | 0.00 | 88 | 1011.9 |
| 20260507025431 | 14 | 300 | 0.0 | 0.0 | 0.00 | 0.00 | 0.00 | 88 | 1011.9 |
| 20260507024928 | 14 | 300 | 0.0 | 0.0 | 0.00 | 0.00 | 0.00 | 88 | 1011.9 |
| 20260507024428 | 14 | 300 | 0.0 | 0.0 | 0.00 | 0.00 | 0.00 | 88 | 1011.9 |
| 20260507023929 | 14 | 300 | 0.0 | 4.8 | 0.00 | 0.00 | 0.00 | 88 | 1011.9 |
| 20260507023431 | 15 | 298 | 0.0 | 4.8 | 0.00 | 0.00 | 0.00 | 88 | 1011.9 |
| 20260507022928 | 15 | 303 | 0.0 | 0.0 | 0.00 | 0.00 | 0.00 | 89 | 1011.9 |
| 20260507022427 | 15 | 295 | 0.0 | 0.0 | 0.00 | 0.00 | 0.00 | 89 | 1011.9 |
| 20260507021927 | 15 | 295 | 0.0 | 0.0 | 0.00 | 0.00 | 0.00 | 89 | 1011.9 |
| 20260507021428 | 15 | 295 | 0.0 | 0.0 | 0.00 | 0.00 | 0.00 | 89 | 1011.9 |
| 20260507020930 | 15 | 295 | 0.0 | 0.0 | 0.00 | 0.00 | 0.00 | 88 | 1011.9 |
| 20260507020428 | 15 | 295 | 0.0 | 0.0 | 0.00 | 0.00 | 0.00 | 89 | 1011.9 |
| 20260507015928 | 15 | 295 | 0.0 | 0.0 | 0.00 | 0.00 | 0.00 | 89 | 1010.9 |
| 20260507015427 | 15 | 295 | 0.0 | 4.8 | 0.00 | 0.00 | 0.00 | 89 | 1010.9 |
| 20260507014928 | 15 | 305 | 0.0 | 4.8 | 0.00 | 0.00 | 0.00 | 89 | 1010.9 |
| 20260507014428 | 15 | 305 | 0.0 | 0.0 | 0.00 | 0.00 | 0.00 | 89 | 1010.9 |
| 20260507013928 | 15 | 305 | 0.0 | 0.0 | 0.00 | 0.00 | 0.00 | 89 | 1010.9 |
| 20260507013430 | 15 | 303 | 0.0 | 0.0 | 0.00 | 0.00 | 0.00 | 89 | 1010.9 |
| 20260507012927 | 15 | 303 | 0.0 | 0.0 | 0.00 | 0.00 | 0.00 | 89 | 1011.9 |
| 20260507012431 | 15 | 303 | 0.0 | 0.0 | 0.00 | 0.00 | 0.00 | 89 | 1011.9 |
| 20260507011927 | 15 | 312 | 0.0 | 6.4 | 0.00 | 0.00 | 0.00 | 89 | 1011.9 |
| 20260507011427 | 15 | 311 | 0.0 | 0.0 | 0.00 | 0.00 | 0.00 | 89 | 1011.9 |
| 20260507010927 | 15 | 302 | 0.0 | 0.0 | 0.00 | 0.00 | 0.00 | 88 | 1011.9 |
| 20260507010428 | 15 | 300 | 0.0 | 0.0 | 0.00 | 0.00 | 0.00 | 88 | 1011.9 |
| 20260507005927 | 15 | 307 | 0.0 | 0.0 | 0.00 | 0.00 | 0.00 | 88 | 1011.9 |
| 20260507005427 | 15 | 306 | 0.0 | 0.0 | 0.00 | 0.00 | 0.00 | 88 | 1011.9 |
| 20260507004930 | 15 | 306 | 0.0 | 0.0 | 0.00 | 0.00 | 0.00 | 87 | 1011.9 |
| 20260507004427 | 15 | 306 | 0.0 | 0.0 | 0.00 | 0.00 | 0.00 | 87 | 1011.9 |
| 20260507003927 | 15 | 306 | 0.0 | 0.0 | 0.00 | 0.00 | 0.00 | 87 | 1011.9 |
| 20260507003427 | 15 | 306 | 0.0 | 0.0 | 0.00 | 0.00 | 0.00 | 87 | 1011.9 |
| 20260507002928 | 15 | 306 | 0.0 | 0.0 | 0.00 | 0.00 | 0.00 | 87 | 1011.9 |
| 20260507002427 | 15 | 306 | 0.0 | 0.0 | 0.00 | 0.00 | 0.00 | 87 | 1011.9 |
| 20260507001927 | 15 | 306 | 0.0 | 0.0 | 0.00 | 0.00 | 0.00 | 87 | 1011.9 |
| 20260507001427 | 15 | 306 | 0.0 | 0.0 | 0.00 | 0.00 | 0.00 | 87 | 1011.9 |
| 20260507000927 | 15 | 306 | 0.0 | 0.0 | 0.00 | 0.00 | 0.00 | 87 | 1011.9 |
| 20260507000428 | 15 | 306 | 0.0 | 0.0 | 0.00 | 0.00 | 0.00 | 87 | 1011.9 |
| 20260506235930 | 15 | 306 | 0.0 | 0.0 | 0.00 | 0.00 | 0.00 | 87 | 1011.9 |
| 20260506235427 | 15 | 306 | 0.0 | 0.0 | 0.00 | 0.00 | 0.00 | 88 | 1011.9 |
| 20260506234928 | 15 | 307 | 0.0 | 0.0 | 0.00 | 0.00 | 0.00 | 88 | 1011.9 |
| 20260506234428 | 15 | 307 | 0.0 | 0.0 | 0.00 | 0.00 | 0.00 | 88 | 1011.9 |
| 20260506233927 | 15 | 307 | 0.0 | 8.0 | 0.00 | 0.00 | 0.00 | 88 | 1011.9 |
| 20260506233427 | 15 | 300 | 0.0 | 0.0 | 0.00 | 0.00 | 0.00 | 88 | 1011.9 |
| 20260506232927 | 15 | 300 | 0.0 | 0.0 | 0.00 | 0.00 | 0.00 | 88 | 1011.9 |
| 20260506232427 | 15 | 221 | 0.0 | 0.0 | 0.00 | 0.00 | 0.00 | 88 | 1011.9 |
| 20260506231927 | 15 | 219 | 0.0 | 4.8 | 0.00 | 0.00 | 0.00 | 88 | 1011.9 |
| 20260506231427 | 15 | 323 | 0.0 | 4.8 | 0.00 | 0.00 | 0.00 | 88 | 1011.9 |
| 20260506230927 | 15 | 222 | 0.0 | 6.4 | 0.00 | 0.00 | 0.00 | 88 | 1011.9 |
| 20260506230427 | 15 | 290 | 0.0 | 6.4 | 0.00 | 0.00 | 0.00 | 88 | 1011.9 |
| 20260506225927 | 15 | 311 | 4.8 | 8.0 | 0.00 | 0.00 | 0.00 | 88 | 1011.9 |
| 20260506225427 | 15 | 289 | 0.0 | 0.0 | 0.00 | 0.00 | 0.00 | 88 | 1011.9 |
| 20260506224930 | 15 | 289 | 0.0 | 3.2 | 0.00 | 0.00 | 0.00 | 88 | 1011.9 |
| 20260506224427 | 15 | 289 | 0.0 | 4.8 | 0.00 | 0.00 | 0.00 | 88 | 1011.9 |
| 20260506223927 | 15 | 282 | 0.0 | 3.2 | 0.00 | 0.00 | 0.00 | 88 | 1011.9 |
| 20260506223430 | 15 | 292 | 0.0 | 9.7 | 0.00 | 0.00 | 0.00 | 88 | 1011.9 |
| 20260506222927 | 15 | 311 | 0.0 | 0.0 | 0.00 | 0.00 | 0.00 | 88 | 1011.9 |
| 20260506222427 | 15 | 311 | 0.0 | 0.0 | 0.00 | 0.00 | 0.00 | 88 | 1011.9 |
| 20260506221927 | 15 | 311 | 0.0 | 6.4 | 0.00 | 0.00 | 0.00 | 88 | 1011.9 |
| 20260506221427 | 15 | 311 | 0.0 | 0.0 | 0.00 | 0.00 | 0.00 | 88 | 1011.9 |
| 20260506220927 | 15 | 313 | 0.0 | 0.0 | 0.00 | 0.00 | 0.00 | 87 | 1011.9 |
| 20260506220427 | 15 | 313 | 0.0 | 3.2 | 0.00 | 0.00 | 0.00 | 88 | 1011.9 |
| 20260506215927 | 15 | 313 | 0.0 | 4.8 | 0.00 | 0.00 | 0.00 | 87 | 1011.9 |
| 20260506215427 | 15 | 313 | 0.0 | 0.0 | 0.00 | 0.00 | 0.00 | 87 | 1011.9 |
| 20260506214927 | 15 | 312 | 0.0 | 0.0 | 0.00 | 0.00 | 0.00 | 87 | 1011.9 |
| 20260506214427 | 15 | 313 | 0.0 | 0.0 | 0.00 | 0.00 | 0.00 | 87 | 1011.9 |
| 20260506213927 | 15 | 313 | 0.0 | 4.8 | 0.00 | 0.00 | 0.00 | 87 | 1011.9 |
| 20260506213430 | 15 | 292 | 0.0 | 6.4 | 0.00 | 0.00 | 0.00 | 86 | 1011.9 |
| 20260506212928 | 15 | 299 | 0.0 | 6.4 | 0.00 | 0.00 | 0.00 | 86 | 1011.9 |
| 20260506212430 | 15 | 284 | 0.0 | 6.4 | 0.00 | 0.00 | 0.00 | 85 | 1011.9 |
| 20260506211930 | 15 | 327 | 0.0 | 0.0 | 0.00 | 0.00 | 0.00 | 85 | 1011.9 |
| 20260506211427 | 15 | 305 | 0.0 | 0.0 | 0.00 | 0.00 | 0.00 | 84 | 1011.9 |
| 20260506210927 | 15 | 303 | 0.0 | 0.0 | 0.00 | 0.00 | 0.00 | 84 | 1011.9 |
| 20260506210427 | 15 | 303 | 0.0 | 0.0 | 0.00 | 0.00 | 0.00 | 84 | 1011.9 |
| 20260506205927 | 15 | 303 | 0.0 | 0.0 | 0.00 | 0.00 | 0.00 | 84 | 1011.9 |
| 20260506205427 | 15 | 302 | 0.0 | 0.0 | 0.00 | 0.00 | 0.00 | 84 | 1011.9 |
| 20260506204927 | 16 | 301 | 0.0 | 0.0 | 0.00 | 0.00 | 0.00 | 84 | 1011.9 |
| 20260506204428 | 16 | 301 | 0.0 | 0.0 | 0.00 | 0.00 | 0.00 | 83 | 1011.9 |
| 20260506203927 | 16 | 301 | 0.0 | 0.0 | 0.00 | 0.00 | 0.00 | 83 | 1011.9 |
| 20260506203427 | 16 | 301 | 0.0 | 0.0 | 0.00 | 0.00 | 0.00 | 83 | 1011.9 |
| 20260506202927 | 16 | 301 | 0.0 | 0.0 | 0.00 | 0.00 | 0.00 | 83 | 1011.9 |
| 20260506202429 | 16 | 301 | 0.0 | 3.2 | 0.00 | 0.00 | 0.00 | 83 | 1011.9 |
| 20260506201930 | 16 | 319 | 0.0 | 6.4 | 0.00 | 0.00 | 0.00 | 83 | 1011.9 |
| 20260506201428 | 16 | 317 | 0.0 | 0.0 | 0.00 | 0.00 | 0.00 | 83 | 1011.9 |
| 20260506200930 | 16 | 313 | 0.0 | 4.8 | 0.00 | 0.00 | 0.00 | 83 | 1011.9 |
| 20260506200427 | 16 | 313 | 0.0 | 0.0 | 0.00 | 0.00 | 0.00 | 82 | 1011.9 |
| 20260506195928 | 16 | 313 | 0.0 | 3.2 | 0.00 | 0.00 | 0.00 | 82 | 1011.9 |
| 20260506195427 | 16 | 311 | 0.0 | 0.0 | 0.00 | 0.00 | 0.00 | 82 | 1011.9 |
| 20260506194927 | 16 | 311 | 0.0 | 6.4 | 0.00 | 0.00 | 0.00 | 82 | 1011.9 |
| 20260506194428 | 16 | 311 | 0.0 | 0.0 | 0.00 | 0.00 | 0.00 | 81 | 1011.9 |
| 20260506193927 | 16 | 311 | 0.0 | 0.0 | 0.00 | 0.00 | 0.00 | 81 | 1011.9 |
| 20260506193427 | 16 | 311 | 0.0 | 0.0 | 0.00 | 0.00 | 0.00 | 81 | 1011.9 |
| 20260506192927 | 17 | 311 | 0.0 | 6.4 | 0.00 | 0.00 | 0.00 | 81 | 1011.9 |
| 20260506192427 | 17 | 310 | 0.0 | 6.4 | 0.00 | 0.00 | 0.00 | 81 | 1011.9 |
| 20260506191927 | 17 | 311 | 0.0 | 0.0 | 0.00 | 0.00 | 0.00 | 80 | 1011.9 |
| 20260506191428 | 17 | 311 | 0.0 | 0.0 | 0.00 | 0.00 | 0.00 | 80 | 1011.9 |
| 20260506190927 | 17 | 311 | 0.0 | 0.0 | 0.00 | 0.00 | 0.00 | 80 | 1011.9 |
| 20260506190430 | 17 | 311 | 0.0 | 0.0 | 0.00 | 0.00 | 0.00 | 80 | 1011.9 |
| 20260506185927 | 17 | 311 | 0.0 | 6.4 | 0.00 | 0.00 | 0.00 | 80 | 1010.9 |
| 20260506185428 | 17 | 302 | 0.0 | 8.0 | 0.00 | 0.00 | 0.00 | 79 | 1010.9 |
| 20260506184928 | 17 | 338 | 0.0 | 0.0 | 0.00 | 0.00 | 0.00 | 78 | 1010.9 |
| 20260506184427 | 17 | 340 | 0.0 | 0.0 | 0.00 | 0.00 | 0.00 | 78 | 1010.9 |
| 20260506183930 | 17 | 339 | 0.0 | 0.0 | 0.00 | 0.00 | 0.00 | 78 | 1010.9 |
| 20260506183427 | 17 | 340 | 0.0 | 4.8 | 0.00 | 0.00 | 0.00 | 78 | 1010.9 |
| 20260506182927 | 17 | 318 | 4.8 | 6.4 | 0.00 | 0.00 | 0.00 | 77 | 1010.9 |
| 20260506182430 | 17 | 18 | 0.0 | 0.0 | 0.00 | 0.00 | 0.00 | 75 | 1010.9 |
| 20260506181927 | 17 | 18 | 0.0 | 0.0 | 0.00 | 0.00 | 0.00 | 75 | 1010.9 |
| 20260506181427 | 17 | 18 | 0.0 | 0.0 | 0.00 | 0.00 | 0.00 | 75 | 1010.9 |
| 20260506180928 | 18 | 20 | 0.0 | 0.0 | 0.00 | 0.00 | 0.00 | 73 | 1010.9 |
| 20260506180430 | 18 | 21 | 0.0 | 0.0 | 0.00 | 0.00 | 0.00 | 72 | 1010.9 |
| 20260506175927 | 18 | 21 | 0.0 | 0.0 | 0.00 | 0.00 | 0.00 | 71 | 1010.9 |
| 20260506175427 | 18 | 21 | 0.0 | 0.0 | 0.00 | 0.00 | 0.00 | 71 | 1010.9 |
| 20260506174931 | 18 | 21 | 0.0 | 0.0 | 0.00 | 0.00 | 0.00 | 70 | 1010.9 |
| 20260506174427 | 18 | 21 | 0.0 | 0.0 | 0.00 | 0.00 | 0.00 | 69 | 1010.9 |
| 20260506173930 | 18 | 21 | 0.0 | 0.0 | 0.00 | 0.00 | 0.00 | 69 | 1010.9 |
| 20260506173428 | 19 | 21 | 0.0 | 0.0 | 0.00 | 0.00 | 0.00 | 68 | 1010.9 |
| 20260506172927 | 19 | 21 | 0.0 | 0.0 | 0.00 | 0.00 | 0.00 | 68 | 1010.9 |
| 20260506172427 | 19 | 21 | 0.0 | 0.0 | 0.00 | 0.00 | 0.00 | 68 | 1010.9 |
| 20260506171930 | 19 | 21 | 0.0 | 0.0 | 0.00 | 0.00 | 0.00 | 67 | 1010.9 |
| 20260506171427 | 19 | 21 | 0.0 | 0.0 | 0.00 | 0.00 | 0.00 | 67 | 1010.9 |
| 20260506170927 | 19 | 21 | 0.0 | 0.0 | 0.00 | 0.00 | 0.00 | 66 | 1010.9 |
| 20260506170427 | 19 | 21 | 0.0 | 0.0 | 0.00 | 0.00 | 0.00 | 66 | 1010.9 |
| 20260506165927 | 19 | 353 | 0.0 | 0.0 | 0.00 | 0.00 | 0.00 | 66 | 1010.9 |
| 20260506165427 | 19 | 353 | 0.0 | 0.0 | 0.00 | 0.00 | 0.00 | 66 | 1010.9 |
| 20260506164930 | 20 | 349 | 0.0 | 0.0 | 0.00 | 0.00 | 0.00 | 65 | 1010.9 |
| 20260506164427 | 20 | 26 | 0.0 | 0.0 | 0.00 | 0.00 | 0.00 | 66 | 1010.9 |
| 20260506163927 | 20 | 28 | 0.0 | 0.0 | 0.00 | 0.00 | 0.00 | 65 | 1010.9 |
| 20260506163427 | 20 | 28 | 0.0 | 0.0 | 0.00 | 0.00 | 0.00 | 65 | 1010.9 |
| 20260506162930 | 20 | 32 | 0.0 | 0.0 | 0.00 | 0.00 | 0.00 | 65 | 1010.9 |
| 20260506162427 | 20 | 33 | 0.0 | 0.0 | 0.00 | 0.00 | 0.00 | 64 | 1010.9 |
| 20260506161927 | 20 | 33 | 0.0 | 0.0 | 0.00 | 0.00 | 0.00 | 64 | 1010.9 |
| 20260506161427 | 20 | 33 | 0.0 | 0.0 | 0.00 | 0.00 | 0.00 | 64 | 1010.9 |
| 20260506160926 | 20 | 25 | 0.0 | 8.0 | 0.00 | 0.00 | 0.00 | 63 | 1010.9 |
| 20260506160427 | 20 | 32 | 0.0 | 8.0 | 0.00 | 0.00 | 0.00 | 63 | 1010.9 |
| 20260506155930 | 20 | 42 | 0.0 | 6.4 | 0.00 | 0.00 | 0.00 | 63 | 1010.9 |
| 20260506155427 | 20 | 74 | 0.0 | 8.0 | 0.00 | 0.00 | 0.00 | 63 | 1010.9 |
| 20260506154928 | 20 | 88 | 0.0 | 9.7 | 0.00 | 0.00 | 0.00 | 63 | 1010.9 |
| 20260506154426 | 20 | 73 | 0.0 | 9.7 | 0.00 | 0.00 | 0.00 | 64 | 1010.9 |
| 20260506153927 | 20 | 74 | 8.0 | 12.9 | 0.00 | 0.00 | 0.00 | 64 | 1010.9 |
| 20260506153427 | 20 | 45 | 0.0 | 9.7 | 0.00 | 0.00 | 0.00 | 64 | 1010.9 |
| 20260506152929 | 20 | 66 | 0.0 | 11.3 | 0.00 | 0.00 | 0.00 | 64 | 1010.9 |
| 20260506152426 | 20 | 49 | 6.4 | 12.9 | 0.00 | 0.00 | 0.00 | 64 | 1010.9 |
| 20260506151927 | 20 | 87 | 0.0 | 9.7 | 0.00 | 0.00 | 0.00 | 65 | 1010.9 |
| 20260506151426 | 20 | 65 | 0.0 | 12.9 | 0.00 | 0.00 | 0.00 | 65 | 1010.9 |
| 20260506150926 | 20 | 25 | 3.2 | 12.9 | 0.00 | 0.00 | 0.00 | 65 | 1010.9 |
| 20260506150427 | 20 | 42 | 6.4 | 16.1 | 0.00 | 0.00 | 0.00 | 65 | 1010.9 |
| 20260506145926 | 20 | 78 | 6.4 | 12.9 | 0.00 | 0.00 | 0.00 | 65 | 1010.9 |
| 20260506145426 | 20 | 71 | 9.7 | 16.1 | 0.00 | 0.00 | 0.00 | 64 | 1010.9 |
| 20260506144927 | 21 | 38 | 11.3 | 16.1 | 0.00 | 0.00 | 0.00 | 64 | 1010.9 |
| 20260506144430 | 21 | 69 | 9.7 | 12.9 | 0.00 | 0.00 | 0.00 | 64 | 1010.9 |
| 20260506143930 | 21 | 64 | 8.0 | 16.1 | 0.00 | 0.00 | 0.00 | 64 | 1010.9 |
| 20260506143429 | 21 | 61 | 12.9 | 16.1 | 0.00 | 0.00 | 0.00 | 64 | 1010.9 |
| 20260506142927 | 21 | 27 | 6.4 | 12.9 | 0.00 | 0.00 | 0.00 | 64 | 1010.9 |
| 20260506142427 | 21 | 21 | 9.7 | 17.7 | 0.00 | 0.00 | 0.00 | 64 | 1010.9 |
| 20260506141926 | 21 | 19 | 12.9 | 16.1 | 0.00 | 0.00 | 0.00 | 65 | 1010.9 |
| 20260506141429 | 21 | 23 | 6.4 | 16.1 | 0.00 | 0.00 | 0.00 | 66 | 1010.9 |
| 20260506140927 | 21 | 67 | 11.3 | 12.9 | 0.00 | 0.00 | 0.00 | 66 | 1010.9 |
| 20260506140429 | 21 | 71 | 6.4 | 12.9 | 0.00 | 0.00 | 0.00 | 66 | 1010.9 |
| 20260506135926 | 21 | 73 | 6.4 | 14.5 | 0.00 | 0.00 | 0.00 | 65 | 1010.9 |
| 20260506135429 | 21 | 55 | 9.7 | 14.5 | 0.00 | 0.00 | 0.00 | 65 | 1010.9 |
| 20260506134926 | 22 | 56 | 6.4 | 16.1 | 0.00 | 0.00 | 0.00 | 64 | 1010.9 |
| 20260506134426 | 22 | 52 | 9.7 | 16.1 | 0.00 | 0.00 | 0.00 | 65 | 1010.9 |
| 20260506133926 | 22 | 107 | 4.8 | 12.9 | 0.00 | 0.00 | 0.00 | 66 | 1010.9 |
| 20260506133426 | 22 | 57 | 11.3 | 12.9 | 0.00 | 0.00 | 0.00 | 67 | 1010.9 |
| 20260506132926 | 22 | 68 | 6.4 | 16.1 | 0.00 | 0.00 | 0.00 | 67 | 1010.9 |
| 20260506132426 | 22 | 96 | 11.3 | 16.1 | 0.00 | 0.00 | 0.00 | 67 | 1010.9 |
| 20260506131926 | 22 | 74 | 9.7 | 12.9 | 0.00 | 0.00 | 0.00 | 67 | 1010.9 |
| 20260506131426 | 22 | 35 | 0.0 | 11.3 | 0.00 | 0.00 | 0.00 | 67 | 1011.9 |
| 20260506130926 | 22 | 51 | 6.4 | 11.3 | 0.00 | 0.00 | 0.00 | 68 | 1011.9 |
| 20260506130426 | 22 | 30 | 9.7 | 12.9 | 0.00 | 0.00 | 0.00 | 69 | 1011.9 |
| 20260506125926 | 22 | 100 | 0.0 | 11.3 | 0.00 | 0.00 | 0.00 | 69 | 1011.9 |
| 20260506125429 | 22 | 91 | 0.0 | 14.5 | 0.00 | 0.00 | 0.00 | 70 | 1011.9 |
| 20260506124926 | 22 | 82 | 4.8 | 12.9 | 0.00 | 0.00 | 0.00 | 69 | 1011.9 |
| 20260506124427 | 22 | 72 | 0.0 | 12.9 | 0.00 | 0.00 | 0.00 | 69 | 1011.9 |
| 20260506123926 | 22 | 59 | 8.0 | 12.9 | 0.00 | 0.00 | 0.00 | 68 | 1011.9 |
| 20260506123427 | 22 | 110 | 9.7 | 11.3 | 0.00 | 0.00 | 0.00 | 69 | 1011.9 |